Time;durP1;ratioP1;P1;durP2;ratioP2;P2;SDS_P1;SDS_P2;PMS_P1;PMS_P2;Temp;Humidity;BMP_temperature;BMP_pressure;BME280_temperature;BME280_humidity;BME280_pressure;Samples;Min_cycle;Max_cycle;Signal;HPM_P1;HPM_P2
2021/10/07 00:00:59;;;;;;;21.33;20.23;;;11.90;88.10;;;;;;5057238;28;21050;-71
2021/10/07 00:03:26;;;;;;;21.00;19.90;;;12.00;88.00;;;;;;5058669;28;20553;-71
2021/10/07 00:05:52;;;;;;;21.90;20.30;;;12.00;87.80;;;;;;5057454;28;20466;-72
2021/10/07 00:08:19;;;;;;;21.50;20.30;;;12.00;87.60;;;;;;5058504;28;20454;-71
2021/10/07 00:10:46;;;;;;;20.80;19.70;;;12.00;87.70;;;;;;5056740;28;20573;-72
2021/10/07 00:13:14;;;;;;;21.27;20.00;;;11.90;87.90;;;;;;5062834;28;20450;-71
2021/10/07 00:15:42;;;;;;;21.20;20.10;;;11.90;88.30;;;;;;5069888;28;20456;-71
2021/10/07 00:18:09;;;;;;;21.20;20.10;;;11.90;88.40;;;;;;5069439;28;20632;-72
2021/10/07 00:20:36;;;;;;;21.37;20.00;;;11.90;88.30;;;;;;5076238;28;20995;-72
2021/10/07 00:23:03;;;;;;;21.63;20.53;;;11.90;88.40;;;;;;5071201;28;21035;-71
2021/10/07 00:25:30;;;;;;;21.50;20.30;;;11.90;88.50;;;;;;5074839;28;20484;-72
2021/10/07 00:28:04;;;;;;;21.30;20.20;;;11.80;88.60;;;;;;5089648;28;20460;-71
2021/10/07 00:30:31;;;;;;;21.00;19.90;;;11.80;88.90;;;;;;5072640;28;20518;-72
2021/10/07 00:33:10;;;;;;;21.67;20.47;;;11.80;89.10;;;;;;5074581;28;20486;-72
2021/10/07 00:35:46;;;;;;;21.83;20.53;;;11.80;88.80;;;;;;5070807;28;20461;-72
2021/10/07 00:40:57;;;;;;;22.37;21.07;;;11.80;88.80;;;;;;5070027;28;20473;-73
2021/10/07 00:43:24;;;;;;;22.40;21.10;;;11.80;89.00;;;;;;5069901;28;20910;-73
2021/10/07 00:45:52;;;;;;;23.40;22.00;;;11.80;89.00;;;;;;5071939;28;20816;-73
2021/10/07 00:48:20;;;;;;;21.70;20.40;;;11.80;88.80;;;;;;5070345;28;20458;-73
2021/10/07 00:50:48;;;;;;;21.23;20.13;;;11.90;88.70;;;;;;5070832;28;20906;-73
2021/10/07 00:53:17;;;;;;;21.27;20.10;;;11.90;88.30;;;;;;5069267;28;20593;-73
2021/10/07 00:55:45;;;;;;;22.30;20.97;;;11.90;88.60;;;;;;5069299;28;21133;-73
2021/10/07 00:58:12;;;;;;;22.07;20.67;;;11.90;88.60;;;;;;5068659;28;20480;-73
2021/10/07 01:00:39;;;;;;;20.97;19.97;;;11.90;88.30;;;;;;5076320;28;20473;-74
2021/10/07 01:03:06;;;;;;;21.13;19.93;;;11.90;88.30;;;;;;5080340;28;20546;-73
2021/10/07 01:05:34;;;;;;;21.90;20.70;;;11.90;87.90;;;;;;5070445;28;20895;-73
2021/10/07 01:08:02;;;;;;;21.20;20.10;;;11.90;87.70;;;;;;5073194;28;20557;-73
2021/10/07 01:10:29;;;;;;;21.20;20.10;;;11.90;88.80;;;;;;5074952;28;21050;-74
2021/10/07 01:12:55;;;;;;;21.40;20.30;;;11.90;88.70;;;;;;5070240;28;20474;-73
2021/10/07 01:15:22;;;;;;;21.50;20.20;;;11.90;88.30;;;;;;5074491;28;21299;-73
2021/10/07 01:17:49;;;;;;;21.43;20.20;;;11.90;87.90;;;;;;5079409;28;20454;-73
2021/10/07 01:20:18;;;;;;;21.20;20.10;;;12.00;87.80;;;;;;5072900;28;20469;-73
2021/10/07 01:22:45;;;;;;;22.13;20.87;;;11.90;87.60;;;;;;5084851;28;20457;-71
2021/10/07 01:25:11;;;;;;;22.47;21.17;;;12.00;87.60;;;;;;5076830;28;20458;-72
2021/10/07 01:27:39;;;;;;;21.70;20.60;;;11.90;88.10;;;;;;5070051;28;20454;-72
2021/10/07 01:30:10;;;;;;;21.53;20.33;;;11.80;88.50;;;;;;5079819;28;20453;-72
2021/10/07 01:32:39;;;;;;;21.10;19.90;;;11.80;88.70;;;;;;5076719;28;20477;-74
2021/10/07 01:35:09;;;;;;;22.33;20.63;;;11.90;88.70;;;;;;5088212;28;20456;-73
2021/10/07 01:37:38;;;;;;;21.63;20.53;;;11.80;88.90;;;;;;5078782;28;20514;-73
2021/10/07 01:40:08;;;;;;;22.20;20.90;;;11.80;89.30;;;;;;5068456;28;20545;-73
2021/10/07 01:42:35;;;;;;;21.63;20.50;;;11.90;89.20;;;;;;5068819;28;20446;-73
2021/10/07 01:45:02;;;;;;;21.67;20.57;;;11.90;89.00;;;;;;5068115;28;20442;-73
2021/10/07 01:47:28;;;;;;;22.43;20.83;;;11.90;88.70;;;;;;5069064;28;20545;-73
2021/10/07 01:49:55;;;;;;;21.40;20.30;;;11.90;88.50;;;;;;5081355;28;20457;-73
2021/10/07 01:52:22;;;;;;;21.33;20.13;;;12.00;88.50;;;;;;5069920;28;20478;-73
2021/10/07 01:54:50;;;;;;;22.10;20.80;;;11.90;88.50;;;;;;5071898;28;20457;-73
2021/10/07 01:57:17;;;;;;;22.17;20.87;;;11.90;88.60;;;;;;5059540;28;20454;-73
2021/10/07 01:59:44;;;;;;;21.57;20.40;;;11.90;88.50;;;;;;5055472;28;20465;-74
2021/10/07 02:02:11;;;;;;;21.57;20.00;;;12.00;88.50;;;;;;5055521;28;20967;-73
2021/10/07 02:04:38;;;;;;;22.67;21.37;;;12.00;88.60;;;;;;5066974;28;20465;-73
2021/10/07 02:07:05;;;;;;;21.90;20.60;;;12.00;89.00;;;;;;5071648;28;20991;-73
2021/10/07 02:09:32;;;;;;;21.40;20.30;;;12.00;88.90;;;;;;5076490;28;20453;-73
2021/10/07 02:12:00;;;;;;;21.70;20.40;;;11.90;88.50;;;;;;5081222;28;20482;-73
2021/10/07 02:14:27;;;;;;;21.50;20.20;;;12.00;88.40;;;;;;5073519;28;20462;-73
2021/10/07 02:16:54;;;;;;;21.40;20.30;;;12.00;88.30;;;;;;5072981;28;20468;-73
2021/10/07 02:19:21;;;;;;;21.73;20.43;;;12.00;88.40;;;;;;5076560;28;20458;-73
2021/10/07 02:21:48;;;;;;;21.90;20.70;;;12.00;89.10;;;;;;5074583;28;20470;-73
2021/10/07 02:24:15;;;;;;;22.33;21.10;;;12.00;88.70;;;;;;5078800;28;20463;-73
2021/10/07 02:26:42;;;;;;;22.30;20.90;;;12.00;88.60;;;;;;5079765;28;20449;-73
2021/10/07 02:29:10;;;;;;;21.73;20.63;;;12.00;88.70;;;;;;5084576;28;20463;-73
2021/10/07 02:31:37;;;;;;;22.17;20.87;;;12.00;88.50;;;;;;5077294;28;20488;-74
2021/10/07 02:34:04;;;;;;;22.00;20.80;;;12.00;88.60;;;;;;5073578;28;20472;-73
2021/10/07 02:36:31;;;;;;;23.97;22.50;;;12.00;88.60;;;;;;5086929;28;20453;-73
2021/10/07 02:38:58;;;;;;;22.03;20.93;;;12.00;88.50;;;;;;5085699;28;20457;-73
2021/10/07 02:41:26;;;;;;;21.30;20.20;;;12.00;88.50;;;;;;5075432;28;20466;-73
2021/10/07 02:43:53;;;;;;;21.50;20.30;;;12.00;88.70;;;;;;5072530;28;20468;-73
2021/10/07 02:46:21;;;;;;;22.63;21.33;;;12.00;88.70;;;;;;5079491;28;20519;-73
2021/10/07 02:48:48;;;;;;;23.50;22.20;;;12.00;89.00;;;;;;5081085;28;20846;-73
2021/10/07 02:51:15;;;;;;;21.10;20.00;;;12.00;89.10;;;;;;5075971;28;21082;-73
2021/10/07 02:53:42;;;;;;;22.87;21.70;;;12.00;89.10;;;;;;5072790;28;20480;-73
2021/10/07 02:56:09;;;;;;;22.90;21.60;;;12.00;88.90;;;;;;5072775;28;20454;-73
2021/10/07 02:58:37;;;;;;;24.40;22.97;;;12.00;89.00;;;;;;5076281;28;20492;-72
2021/10/07 03:01:04;;;;;;;22.63;21.53;;;11.90;89.20;;;;;;5077103;28;20986;-72
2021/10/07 03:03:32;;;;;;;21.70;20.50;;;11.90;89.30;;;;;;5073598;28;20454;-72
2021/10/07 03:05:59;;;;;;;22.20;21.10;;;11.90;89.40;;;;;;5083588;28;20540;-72
2021/10/07 03:08:28;;;;;;;23.00;21.80;;;11.90;89.40;;;;;;5072162;28;20456;-72
2021/10/07 03:10:55;;;;;;;22.00;20.90;;;12.00;89.10;;;;;;5078508;28;20473;-72
2021/10/07 03:13:22;;;;;;;23.33;22.10;;;11.90;89.20;;;;;;5071710;28;20481;-72
2021/10/07 03:15:49;;;;;;;21.83;20.30;;;11.90;89.90;;;;;;5074924;28;20458;-72
2021/10/07 03:18:16;;;;;;;21.90;20.70;;;11.80;89.90;;;;;;5071949;28;20460;-72
2021/10/07 03:20:45;;;;;;;21.83;20.53;;;11.80;90.00;;;;;;5083015;28;20479;-72
2021/10/07 03:23:11;;;;;;;23.20;21.97;;;11.80;90.00;;;;;;5072631;28;20473;-72
2021/10/07 03:25:38;;;;;;;23.43;21.87;;;11.80;90.00;;;;;;5072670;28;20465;-72
2021/10/07 03:28:05;;;;;;;22.33;21.17;;;11.80;90.10;;;;;;5071204;28;20464;-71
2021/10/07 03:30:32;;;;;;;23.50;22.20;;;11.80;90.30;;;;;;5075690;28;20888;-72
2021/10/07 03:33:05;;;;;;;23.67;21.87;;;11.90;90.30;;;;;;5057840;28;20477;-72
2021/10/07 03:35:32;;;;;;;22.80;21.60;;;11.90;90.20;;;;;;5057741;28;20454;-72
2021/10/07 03:38:00;;;;;;;24.27;22.90;;;11.90;89.90;;;;;;5059448;28;20777;-71
2021/10/07 03:40:27;;;;;;;22.53;21.23;;;11.90;89.40;;;;;;5058020;28;20482;-72
2021/10/07 03:42:54;;;;;;;22.83;21.40;;;11.90;89.60;;;;;;5057906;28;20709;-72
2021/10/07 03:45:21;;;;;;;24.30;22.90;;;11.80;89.70;;;;;;5056989;28;20469;-72
2021/10/07 03:47:49;;;;;;;22.33;21.13;;;11.80;89.80;;;;;;5059139;28;20461;-72
2021/10/07 03:50:16;;;;;;;23.27;21.87;;;11.80;90.10;;;;;;5059162;28;20470;-72
2021/10/07 03:52:43;;;;;;;22.60;21.30;;;11.80;90.30;;;;;;5059205;28;21091;-71
2021/10/07 03:55:11;;;;;;;23.83;22.60;;;11.70;90.40;;;;;;5057895;28;20545;-72
2021/10/07 03:57:38;;;;;;;24.03;22.63;;;11.80;90.50;;;;;;5058031;28;20484;-71
2021/10/07 04:00:07;;;;;;;24.20;22.60;;;11.80;90.90;;;;;;5056684;28;20459;-72
2021/10/07 04:02:34;;;;;;;23.70;22.40;;;11.80;90.70;;;;;;5058018;28;20461;-72
2021/10/07 04:05:01;;;;;;;22.20;20.90;;;11.80;90.70;;;;;;5056958;28;20462;-72
2021/10/07 04:07:28;;;;;;;21.97;20.50;;;11.80;90.70;;;;;;5057356;28;20469;-72
2021/10/07 04:09:55;;;;;;;22.30;21.07;;;11.80;90.90;;;;;;5057860;28;20457;-71
2021/10/07 04:12:23;;;;;;;23.50;22.30;;;11.80;91.80;;;;;;5057622;28;20474;-71
2021/10/07 04:14:50;;;;;;;21.23;20.13;;;11.80;91.30;;;;;;5057989;28;21195;-71
2021/10/07 04:17:17;;;;;;;23.97;22.67;;;11.80;91.20;;;;;;5056141;28;20453;-72
2021/10/07 04:19:44;;;;;;;23.03;21.70;;;11.80;91.00;;;;;;5060380;28;20879;-71
2021/10/07 04:22:11;;;;;;;22.50;21.20;;;11.70;90.90;;;;;;5056044;28;20565;-71
2021/10/07 04:24:37;;;;;;;23.47;22.10;;;11.70;90.90;;;;;;5058353;28;20461;-72
2021/10/07 04:27:04;;;;;;;24.70;23.23;;;11.80;90.80;;;;;;5056728;28;20456;-72
2021/10/07 04:29:33;;;;;;;22.50;21.30;;;11.80;90.70;;;;;;5058097;28;20465;-69
2021/10/07 04:31:59;;;;;;;22.00;20.83;;;11.80;90.80;;;;;;5070326;28;20219;-76
2021/10/07 04:34:26;;;;;;;21.77;20.57;;;11.80;90.60;;;;;;5078172;28;20473;-75
2021/10/07 04:36:53;;;;;;;22.37;21.17;;;11.80;90.70;;;;;;5075727;28;20457;-72
2021/10/07 04:39:20;;;;;;;22.15;20.75;;;11.80;90.70;;;;;;5080526;28;20469;-72
2021/10/07 04:41:47;;;;;;;22.30;21.03;;;12.00;90.20;;;;;;5071385;28;20735;-72
2021/10/07 04:44:14;;;;;;;24.50;23.10;;;11.90;89.90;;;;;;5071450;28;20529;-74
2021/10/07 04:46:42;;;;;;;25.20;23.70;;;11.90;90.20;;;;;;5069746;28;20458;-74
2021/10/07 04:49:09;;;;;;;23.33;22.00;;;11.80;90.50;;;;;;5077777;28;20449;-73
2021/10/07 04:51:36;;;;;;;22.80;21.60;;;11.80;90.90;;;;;;5076704;28;20468;-73
2021/10/07 04:54:03;;;;;;;22.40;21.20;;;11.80;91.10;;;;;;5070080;28;20485;-74
2021/10/07 04:56:30;;;;;;;23.80;22.20;;;11.70;91.20;;;;;;5069947;28;20549;-73
2021/10/07 04:58:57;;;;;;;25.93;24.20;;;11.70;91.30;;;;;;5073723;28;20923;-74
2021/10/07 05:01:24;;;;;;;22.27;21.07;;;11.70;91.30;;;;;;5073775;28;20474;-73
2021/10/07 05:03:52;;;;;;;24.27;22.83;;;11.70;91.20;;;;;;5075372;28;20448;-75
2021/10/07 05:06:19;;;;;;;23.00;21.70;;;11.70;91.50;;;;;;5072550;28;20453;-75
2021/10/07 05:08:46;;;;;;;23.53;22.13;;;11.80;91.70;;;;;;5088846;28;20455;-74
2021/10/07 05:11:13;;;;;;;22.53;21.33;;;11.80;91.40;;;;;;5074450;28;20467;-78
2021/10/07 05:13:40;;;;;;;23.10;21.70;;;11.70;91.30;;;;;;5077250;28;20487;-75
2021/10/07 05:16:07;;;;;;;26.40;24.70;;;11.70;91.20;;;;;;5075261;28;20474;-77
2021/10/07 05:18:34;;;;;;;23.20;21.90;;;11.80;91.70;;;;;;5068226;28;20462;-76
2021/10/07 05:21:02;;;;;;;24.80;23.20;;;11.70;92.10;;;;;;5069947;28;20475;-75
2021/10/07 05:23:29;;;;;;;23.70;22.13;;;11.70;92.00;;;;;;5069503;28;20462;-74
2021/10/07 05:25:57;;;;;;;24.00;22.70;;;11.80;91.70;;;;;;5069604;28;20816;-72
2021/10/07 05:28:24;;;;;;;22.97;21.57;;;11.80;91.50;;;;;;5073241;28;21001;-73
2021/10/07 05:30:51;;;;;;;24.33;22.93;;;11.80;91.50;;;;;;5076904;28;20556;-73
2021/10/07 05:33:19;;;;;;;23.83;22.43;;;11.80;91.70;;;;;;5071730;28;20474;-73
2021/10/07 05:35:46;;;;;;;23.20;21.80;;;11.80;91.80;;;;;;5075488;28;20533;-74
2021/10/07 05:38:14;;;;;;;24.13;22.83;;;11.80;91.60;;;;;;5083174;28;20465;-73
2021/10/07 05:40:42;;;;;;;23.47;22.17;;;11.70;91.70;;;;;;5073671;28;20553;-75
2021/10/07 05:43:09;;;;;;;22.93;21.63;;;11.80;91.60;;;;;;5068720;28;20542;-74
2021/10/07 05:45:36;;;;;;;23.40;22.20;;;11.80;91.50;;;;;;5074424;28;20461;-74
2021/10/07 05:48:04;;;;;;;24.53;23.00;;;11.80;91.50;;;;;;5077244;28;20453;-73
2021/10/07 05:50:32;;;;;;;23.37;22.17;;;11.80;91.40;;;;;;5079001;28;20835;-73
2021/10/07 05:52:58;;;;;;;24.00;22.63;;;11.80;91.40;;;;;;5070116;28;20476;-73
2021/10/07 05:55:27;;;;;;;23.17;21.90;;;11.90;91.50;;;;;;5069980;28;20462;-73
2021/10/07 05:57:54;;;;;;;24.30;22.90;;;11.90;91.40;;;;;;5072183;28;20989;-74
2021/10/07 06:00:22;;;;;;;24.30;22.60;;;11.90;91.40;;;;;;5069165;28;20552;-74
2021/10/07 06:02:49;;;;;;;23.60;22.40;;;12.00;91.60;;;;;;5068687;28;20796;-74
2021/10/07 06:05:16;;;;;;;23.97;22.80;;;12.00;91.50;;;;;;5069641;28;20989;-74
2021/10/07 06:07:43;;;;;;;24.57;22.97;;;12.00;91.20;;;;;;5076611;28;20546;-74
2021/10/07 06:10:11;;;;;;;23.23;21.80;;;12.00;91.00;;;;;;5074787;28;20504;-74
2021/10/07 06:12:40;;;;;;;24.40;23.10;;;12.00;90.80;;;;;;5071204;28;20461;-71
2021/10/07 06:15:08;;;;;;;23.97;22.47;;;12.10;90.60;;;;;;5081641;28;20548;-71
2021/10/07 06:17:35;;;;;;;24.80;23.43;;;12.10;90.40;;;;;;5073817;28;20449;-71
2021/10/07 06:20:05;;;;;;;23.47;21.97;;;12.10;90.10;;;;;;5073596;28;21258;-72
2021/10/07 06:22:32;;;;;;;24.03;22.53;;;12.20;90.00;;;;;;5074332;28;20454;-71
2021/10/07 06:25:00;;;;;;;23.77;22.37;;;12.20;89.70;;;;;;5068397;28;20450;-71
2021/10/07 06:27:27;;;;;;;24.73;23.13;;;12.30;89.70;;;;;;5074841;28;20449;-72
2021/10/07 06:29:56;;;;;;;24.23;22.70;;;12.30;89.60;;;;;;5068051;28;20548;-71
2021/10/07 06:32:22;;;;;;;28.97;26.80;;;12.40;89.20;;;;;;5075497;28;20450;-71
2021/10/07 06:34:49;;;;;;;30.13;28.03;;;12.40;89.20;;;;;;5069396;28;20484;-71
2021/10/07 06:37:16;;;;;;;24.73;23.33;;;12.40;89.40;;;;;;5076483;28;20557;-72
2021/10/07 06:39:43;;;;;;;26.57;25.07;;;12.50;89.00;;;;;;5075408;28;20462;-72
2021/10/07 06:42:13;;;;;;;24.07;22.80;;;12.60;88.90;;;;;;5077297;28;20480;-71
2021/10/07 06:44:40;;;;;;;24.97;23.57;;;12.60;88.70;;;;;;5071150;28;20450;-71
2021/10/07 06:47:08;;;;;;;28.27;25.57;;;12.70;88.00;;;;;;5067978;28;20462;-71
2021/10/07 06:49:35;;;;;;;25.53;24.03;;;12.70;88.30;;;;;;5078966;28;20458;-73
2021/10/07 06:52:03;;;;;;;26.07;24.37;;;12.70;88.30;;;;;;5076481;28;20476;-75
2021/10/07 06:54:30;;;;;;;26.70;25.20;;;12.80;88.00;;;;;;5075866;28;20507;-75
2021/10/07 06:56:57;;;;;;;26.43;24.47;;;12.80;87.40;;;;;;5070361;28;20493;-75
2021/10/07 06:59:23;;;;;;;26.50;25.00;;;12.90;87.20;;;;;;5081460;28;20535;-74
2021/10/07 07:01:50;;;;;;;25.20;23.80;;;13.00;86.90;;;;;;5072636;28;20470;-74
2021/10/07 07:04:18;;;;;;;39.87;29.87;;;13.10;86.00;;;;;;5080979;28;20449;-74
2021/10/07 07:06:47;;;;;;;29.17;26.63;;;13.10;84.40;;;;;;5086491;28;20531;-74
2021/10/07 07:09:14;;;;;;;26.87;25.27;;;13.10;84.40;;;;;;5081003;28;20461;-73
2021/10/07 07:11:44;;;;;;;25.90;24.27;;;13.10;83.70;;;;;;5085286;28;20563;-72
2021/10/07 07:14:11;;;;;;;25.07;23.37;;;12.90;84.40;;;;;;5087626;28;20545;-72
2021/10/07 07:16:38;;;;;;;26.40;24.80;;;12.90;83.20;;;;;;5074971;28;20462;-73
2021/10/07 07:19:05;;;;;;;28.03;25.73;;;13.00;82.70;;;;;;5081401;28;20472;-73
2021/10/07 07:21:33;;;;;;;26.30;24.80;;;13.00;82.90;;;;;;5073025;28;20482;-73
2021/10/07 07:24:02;;;;;;;28.33;26.53;;;13.20;81.70;;;;;;5082574;28;20453;-73
2021/10/07 07:26:33;;;;;;;27.47;25.80;;;13.10;81.10;;;;;;5077544;28;21002;-73
2021/10/07 07:29:00;;;;;;;26.77;25.17;;;12.90;81.50;;;;;;5070637;28;20468;-73
2021/10/07 07:31:28;;;;;;;28.03;26.17;;;12.90;81.90;;;;;;5078377;28;20485;-73
2021/10/07 07:33:59;;;;;;;27.60;25.80;;;12.80;82.10;;;;;;5073933;28;20478;-73
2021/10/07 07:36:26;;;;;;;28.07;26.47;;;13.00;82.10;;;;;;5081752;28;20460;-73
2021/10/07 07:38:55;;;;;;;28.47;26.67;;;13.20;81.20;;;;;;5078584;28;20552;-73
2021/10/07 07:41:21;;;;;;;27.97;26.37;;;13.20;81.20;;;;;;5075236;28;20481;-73
2021/10/07 07:43:48;;;;;;;28.67;27.07;;;13.20;81.30;;;;;;5071554;28;20464;-73
2021/10/07 07:46:18;;;;;;;29.53;27.73;;;13.10;81.40;;;;;;5073887;28;20839;-72
2021/10/07 07:48:45;;;;;;;30.53;28.53;;;13.10;81.60;;;;;;5080968;28;20958;-73
2021/10/07 07:51:12;;;;;;;28.93;27.03;;;13.10;81.50;;;;;;5078912;28;20482;-73
2021/10/07 07:53:39;;;;;;;28.43;26.77;;;13.10;81.60;;;;;;5087709;28;20485;-72
2021/10/07 07:56:07;;;;;;;30.57;28.77;;;13.00;81.80;;;;;;5078110;28;20460;-72
2021/10/07 07:58:34;;;;;;;29.70;27.90;;;13.10;81.60;;;;;;5079281;28;20457;-73
2021/10/07 08:01:01;;;;;;;31.83;30.03;;;13.10;81.40;;;;;;5086291;28;20519;-73
2021/10/07 08:03:28;;;;;;;29.97;27.97;;;13.10;81.80;;;;;;5075055;28;20454;-73
2021/10/07 08:05:55;;;;;;;30.17;28.37;;;13.10;81.80;;;;;;5069420;28;20458;-72
2021/10/07 08:08:22;;;;;;;30.50;28.80;;;13.00;82.00;;;;;;5078381;28;20461;-73
2021/10/07 08:10:49;;;;;;;30.50;28.57;;;13.00;82.50;;;;;;5084116;28;20476;-73
2021/10/07 08:13:20;;;;;;;31.53;29.43;;;13.10;82.20;;;;;;5079848;28;20454;-71
2021/10/07 08:15:48;;;;;;;30.17;28.37;;;13.00;82.20;;;;;;5071147;28;20960;-71
2021/10/07 08:18:15;;;;;;;32.13;29.83;;;13.10;82.60;;;;;;5076532;28;20556;-71
2021/10/07 08:20:43;;;;;;;30.90;28.90;;;13.10;82.50;;;;;;5077731;28;20474;-70
2021/10/07 08:23:12;;;;;;;30.33;28.33;;;13.20;82.50;;;;;;5079499;28;20823;-72
2021/10/07 08:25:40;;;;;;;32.27;30.03;;;13.20;82.60;;;;;;5085235;28;20469;-71
2021/10/07 08:28:06;;;;;;;30.70;28.80;;;13.40;81.80;;;;;;5080603;28;20480;-71
2021/10/07 08:30:35;;;;;;;30.57;28.40;;;13.50;81.10;;;;;;5090721;28;20550;-71
2021/10/07 08:33:02;;;;;;;30.10;28.20;;;13.60;80.80;;;;;;5075265;28;20538;-72
2021/10/07 08:35:29;;;;;;;30.07;28.07;;;13.60;80.50;;;;;;5083805;28;20468;-71
2021/10/07 08:37:56;;;;;;;30.17;28.20;;;13.50;80.80;;;;;;5076009;28;20886;-71
2021/10/07 08:40:23;;;;;;;29.93;28.00;;;13.80;80.30;;;;;;5081098;28;20484;-71
2021/10/07 08:42:50;;;;;;;31.20;29.30;;;14.10;79.80;;;;;;5073366;28;20485;-70
2021/10/07 08:45:17;;;;;;;30.30;28.10;;;14.30;79.10;;;;;;5073850;28;20512;-71
2021/10/07 08:47:49;;;;;;;30.57;28.67;;;14.70;78.30;;;;;;5071574;28;20560;-71
2021/10/07 08:50:18;;;;;;;31.70;29.40;;;14.90;77.50;;;;;;5080885;28;20474;-71
2021/10/07 08:52:46;;;;;;;32.33;29.90;;;15.20;76.40;;;;;;5073473;28;20465;-71
2021/10/07 08:55:13;;;;;;;29.80;27.90;;;15.40;75.60;;;;;;5085692;28;20483;-71
2021/10/07 08:57:40;;;;;;;30.20;28.37;;;15.50;73.90;;;;;;5074583;28;20458;-71
2021/10/07 09:00:11;;;;;;;29.97;28.00;;;15.50;73.50;;;;;;5072408;28;20457;-70
2021/10/07 09:02:38;;;;;;;30.03;28.13;;;15.50;73.30;;;;;;5073826;28;20819;-70
2021/10/07 09:05:13;;;;;;;32.20;30.00;;;15.40;73.80;;;;;;5070368;28;20815;-71
2021/10/07 09:07:58;;;;;;;30.43;28.50;;;15.40;73.80;;;;;;5075866;28;20454;-71
2021/10/07 09:10:39;;;;;;;31.13;29.30;;;15.20;73.60;;;;;;5073390;28;20592;-72
2021/10/07 09:13:09;;;;;;;33.10;31.00;;;15.10;74.10;;;;;;5083686;28;20464;-71
2021/10/07 09:15:40;;;;;;;32.00;30.10;;;15.20;74.30;;;;;;5076817;28;20554;-71
2021/10/07 09:18:07;;;;;;;34.53;31.37;;;15.20;76.30;;;;;;5083017;28;20563;-71
2021/10/07 09:20:38;;;;;;;37.47;34.70;;;15.40;74.30;;;;;;5073465;28;20474;-71
2021/10/07 09:23:07;;;;;;;32.63;30.43;;;15.50;75.50;;;;;;5079969;28;21000;-71
2021/10/07 09:25:53;;;;;;;32.87;30.10;;;15.70;75.70;;;;;;5070207;28;20466;-73
2021/10/07 09:28:24;;;;;;;32.10;29.90;;;16.00;72.70;;;;;;5080897;28;20459;-72
2021/10/07 09:31:02;;;;;;;32.63;30.40;;;16.00;71.20;;;;;;5080275;28;20480;-71
2021/10/07 09:33:36;;;;;;;31.57;29.57;;;16.00;71.90;;;;;;5077860;28;20452;-72
2021/10/07 09:36:19;;;;;;;32.67;30.50;;;15.90;72.80;;;;;;5073547;28;20474;-73
2021/10/07 09:38:48;;;;;;;33.70;31.50;;;16.00;72.10;;;;;;5076438;28;20565;-71
2021/10/07 09:41:16;;;;;;;33.13;31.03;;;15.90;72.00;;;;;;5080182;28;20888;-71
2021/10/07 09:43:49;;;;;;;34.27;32.07;;;15.70;72.80;;;;;;5070134;28;20462;-70
2021/10/07 09:46:42;;;;;;;35.93;33.70;;;15.40;73.40;;;;;;5081979;28;20460;-73
2021/10/07 09:49:10;;;;;;;33.20;31.20;;;15.30;74.30;;;;;;5080697;28;20529;-73
2021/10/07 09:51:43;;;;;;;34.07;31.87;;;15.20;74.20;;;;;;5072791;28;20847;-71
2021/10/07 09:54:11;;;;;;;33.33;31.33;;;15.20;74.50;;;;;;5068536;28;20480;-73
2021/10/07 09:56:38;;;;;;;32.73;30.73;;;15.30;74.00;;;;;;5078398;28;20462;-71
2021/10/07 09:59:10;;;;;;;34.37;31.90;;;15.50;73.80;;;;;;5086549;28;20545;-73
2021/10/07 10:01:41;;;;;;;32.77;30.73;;;15.70;73.90;;;;;;5073898;28;20589;-74
2021/10/07 10:04:08;;;;;;;34.43;32.33;;;15.90;73.80;;;;;;5078892;28;20453;-72
2021/10/07 10:06:35;;;;;;;34.30;32.20;;;16.10;73.20;;;;;;5075990;28;20454;-73
2021/10/07 10:09:03;;;;;;;33.30;31.10;;;16.00;72.10;;;;;;5070479;28;20449;-72
2021/10/07 10:11:30;;;;;;;32.93;30.93;;;16.10;71.90;;;;;;5082548;28;20479;-72
2021/10/07 10:13:58;;;;;;;33.73;31.60;;;16.30;71.10;;;;;;5085039;28;20455;-73
2021/10/07 10:16:25;;;;;;;35.13;32.83;;;16.40;69.70;;;;;;5088581;28;20457;-72
2021/10/07 10:18:57;;;;;;;33.90;31.80;;;16.30;69.80;;;;;;5077351;28;20966;-72
2021/10/07 10:21:26;;;;;;;33.73;31.63;;;16.50;70.10;;;;;;5074942;28;20477;-72
2021/10/07 10:23:54;;;;;;;32.23;30.13;;;16.80;70.20;;;;;;5081064;28;20541;-72
2021/10/07 10:26:25;;;;;;;32.73;30.83;;;17.00;68.80;;;;;;5079115;28;20846;-72
2021/10/07 10:28:53;;;;;;;32.27;30.10;;;16.80;68.40;;;;;;5084448;28;20465;-72
2021/10/07 10:31:34;;;;;;;32.87;30.80;;;16.80;68.10;;;;;;5074046;28;20476;-72
2021/10/07 10:34:09;;;;;;;33.40;31.07;;;16.80;68.90;;;;;;5085203;28;20807;-72
2021/10/07 10:36:39;;;;;;;31.77;29.77;;;16.80;69.60;;;;;;5083934;28;20531;-72
2021/10/07 10:39:10;;;;;;;31.47;29.57;;;16.90;68.10;;;;;;5074796;28;20465;-74
2021/10/07 10:41:54;;;;;;;30.20;27.97;;;16.90;66.60;;;;;;5076639;28;20965;-74
2021/10/07 10:44:49;;;;;;;32.03;29.67;;;16.50;68.20;;;;;;5082353;28;20456;-72
2021/10/07 10:47:25;;;;;;;32.40;30.20;;;16.60;69.00;;;;;;5073700;28;20454;-73
2021/10/07 10:50:00;;;;;;;33.07;31.07;;;16.50;69.10;;;;;;5075444;28;20480;-72
2021/10/07 10:52:29;;;;;;;32.27;30.00;;;16.60;69.10;;;;;;5078785;28;20458;-72
2021/10/07 10:54:59;;;;;;;32.80;30.60;;;16.50;68.30;;;;;;5077743;28;20473;-72
2021/10/07 10:57:30;;;;;;;31.70;29.70;;;16.60;68.60;;;;;;5080676;28;20457;-72
2021/10/07 11:00:05;;;;;;;32.10;30.10;;;16.70;68.30;;;;;;5071026;28;20466;-72
2021/10/07 11:02:33;;;;;;;33.17;30.97;;;16.70;68.60;;;;;;5078209;28;20463;-73
2021/10/07 11:05:09;;;;;;;33.30;31.07;;;16.70;69.20;;;;;;5083715;28;20810;-72
2021/10/07 11:07:36;;;;;;;32.80;30.70;;;16.50;70.00;;;;;;5071651;28;20877;-72
2021/10/07 11:10:13;;;;;;;32.80;30.60;;;16.30;70.70;;;;;;5070269;28;20689;-73
2021/10/07 11:12:56;;;;;;;32.20;29.80;;;16.30;70.50;;;;;;5076912;28;20459;-70
2021/10/07 11:15:26;;;;;;;32.70;30.50;;;16.10;71.20;;;;;;5074817;28;20844;-70
2021/10/07 11:17:54;;;;;;;32.40;30.40;;;16.30;70.50;;;;;;5084453;28;20918;-70
2021/10/07 11:20:25;;;;;;;31.50;29.23;;;16.40;69.70;;;;;;5091177;28;20480;-70
2021/10/07 11:23:10;;;;;;;30.70;28.80;;;16.60;69.30;;;;;;5082854;28;21045;-70
2021/10/07 11:25:40;;;;;;;30.60;28.70;;;16.80;68.00;;;;;;5072064;28;20477;-70
2021/10/07 11:28:09;;;;;;;31.77;29.60;;;16.90;67.50;;;;;;5078628;28;20450;-70
2021/10/07 11:30:39;;;;;;;31.83;29.60;;;16.90;67.70;;;;;;5074611;28;20473;-70
2021/10/07 11:33:07;;;;;;;32.53;30.27;;;17.10;67.30;;;;;;5074273;28;20890;-71
2021/10/07 11:35:35;;;;;;;31.60;29.47;;;17.00;67.40;;;;;;5078398;28;20472;-70
2021/10/07 11:38:06;;;;;;;32.33;29.47;;;17.00;68.10;;;;;;5075593;28;20994;-70
2021/10/07 11:40:38;;;;;;;30.43;28.40;;;16.90;68.40;;;;;;5077912;28;20477;-70
2021/10/07 11:43:08;;;;;;;31.10;29.20;;;17.10;67.60;;;;;;5073560;28;20457;-70
2021/10/07 11:45:37;;;;;;;30.00;28.00;;;17.20;66.30;;;;;;5078110;28;20468;-70
2021/10/07 11:48:08;;;;;;;29.03;27.33;;;17.10;66.70;;;;;;5086330;28;20544;-70
2021/10/07 11:50:44;;;;;;;30.50;28.60;;;17.10;66.60;;;;;;5077442;28;20474;-70
2021/10/07 11:53:13;;;;;;;29.80;28.00;;;17.00;66.60;;;;;;5079348;28;20457;-70
2021/10/07 11:55:43;;;;;;;30.73;28.17;;;16.90;66.40;;;;;;5072073;28;20560;-70
2021/10/07 11:58:11;;;;;;;28.60;26.93;;;17.00;65.70;;;;;;5080862;28;20457;-71
2021/10/07 12:00:49;;;;;;;29.83;27.83;;;17.00;67.00;;;;;;5077050;28;20537;-71
2021/10/07 12:03:23;;;;;;;29.10;27.40;;;17.00;66.40;;;;;;5070930;28;20822;-71
2021/10/07 12:05:53;;;;;;;31.60;29.70;;;17.00;66.50;;;;;;5076656;28;20538;-71
2021/10/07 12:08:22;;;;;;;29.80;27.90;;;17.10;66.20;;;;;;5073753;28;20461;-71
2021/10/07 12:10:51;;;;;;;29.33;27.53;;;17.30;66.40;;;;;;5077919;28;20470;-70
2021/10/07 12:13:20;;;;;;;29.90;28.10;;;17.40;65.80;;;;;;5075503;28;20457;-70
2021/10/07 12:15:54;;;;;;;30.97;29.17;;;17.30;66.10;;;;;;5086669;28;20476;-72
2021/10/07 12:18:23;;;;;;;29.97;27.60;;;17.20;66.00;;;;;;5074197;28;20500;-71
2021/10/07 12:21:04;;;;;;;28.60;26.90;;;16.80;66.20;;;;;;5078585;28;20484;-70
2021/10/07 12:23:32;;;;;;;30.93;28.97;;;16.80;67.10;;;;;;5079764;28;20448;-71
2021/10/07 12:26:02;;;;;;;30.97;28.97;;;16.90;67.10;;;;;;5088478;28;20469;-70
2021/10/07 12:28:31;;;;;;;30.97;28.93;;;17.00;67.00;;;;;;5077909;28;20472;-70
2021/10/07 12:31:01;;;;;;;29.00;27.30;;;17.00;66.80;;;;;;5075768;28;20476;-70
2021/10/07 12:33:30;;;;;;;29.27;27.40;;;16.90;67.40;;;;;;5072386;28;20450;-71
2021/10/07 12:36:01;;;;;;;29.10;27.20;;;17.10;67.60;;;;;;5072809;28;21058;-70
2021/10/07 12:38:29;;;;;;;28.87;27.17;;;17.00;66.10;;;;;;5073511;28;20470;-70